Time;durP1;ratioP1;P1;durP2;ratioP2;P2;SDS_P1;SDS_P2;PMS_P1;PMS_P2;Temp;Humidity;BMP_temperature;BMP_pressure;BME280_temperature;BME280_humidity;BME280_pressure;Samples;Min_cycle;Max_cycle;Signal;HPM_P1;HPM_P2
2023/06/19 00:01:34;;;;;;;2.22;2.13;;;22.30;99.90;;;22.17;74.41;100523.34;4934613;29;20055;-66
2023/06/19 00:04:02;;;;;;;2.75;2.65;;;22.30;99.90;;;22.73;74.72;100627.06;4934526;29;20120;-66
2023/06/19 00:06:31;;;;;;;2.25;2.15;;;22.30;99.90;;;22.69;75.15;100628.19;4934759;29;20075;-65
2023/06/19 00:09:00;;;;;;;3.00;2.80;;;22.30;99.90;;;22.52;76.01;100634.53;4934362;29;20056;-65
2023/06/19 00:11:29;;;;;;;3.73;3.37;;;22.10;99.90;;;22.44;76.76;100634.09;4934545;29;20052;-66
2023/06/19 00:13:57;;;;;;;2.55;2.45;;;22.00;99.90;;;22.44;76.99;100621.50;4934670;29;20331;-66
2023/06/19 00:16:25;;;;;;;4.18;3.88;;;22.00;99.90;;;22.53;77.08;100635.41;4934392;29;20063;-66
2023/06/19 00:18:55;;;;;;;3.13;2.83;;;22.00;99.90;;;22.52;77.17;100633.66;4934361;29;20048;-66
2023/06/19 00:21:24;;;;;;;3.23;3.03;;;22.00;99.90;;;21.75;77.57;100503.34;4930921;29;20103;-68
2023/06/19 00:23:53;;;;;;;2.80;2.70;;;22.00;99.90;;;22.48;77.69;100640.19;4934247;29;20366;-66
2023/06/19 00:26:25;;;;;;;2.67;2.58;;;22.00;99.90;;;22.37;78.25;100621.94;4934123;29;20055;-66
2023/06/19 00:28:53;;;;;;;2.33;2.22;;;22.00;99.90;;;22.40;78.45;100632.53;4934213;29;20493;-66
2023/06/19 00:31:22;;;;;;;2.65;2.55;;;22.00;99.90;;;22.39;78.50;100642.47;4934306;29;20529;-67
2023/06/19 00:33:51;;;;;;;3.53;3.33;;;21.90;99.90;;;22.37;78.89;100639.00;4936165;29;20110;-66
2023/06/19 00:36:21;;;;;;;3.03;2.88;;;21.90;99.90;;;22.40;78.85;100644.19;4937891;29;20147;-66
2023/06/19 00:38:49;;;;;;;2.50;2.40;;;22.00;99.90;;;22.43;79.00;100640.47;4936717;29;20142;-67
2023/06/19 00:41:18;;;;;;;2.55;2.45;;;22.00;99.90;;;22.46;79.17;100632.19;4925415;29;20060;-66
2023/06/19 00:43:48;;;;;;;2.72;2.63;;;22.00;99.90;;;22.47;78.99;100641.16;4937831;29;20505;-66
2023/06/19 00:46:16;;;;;;;2.77;2.67;;;22.00;99.90;;;22.43;79.24;100649.41;4936850;29;20148;-66
2023/06/19 00:48:45;;;;;;;2.40;2.30;;;22.00;99.90;;;22.41;79.71;100643.22;4936827;29;20307;-66
2023/06/19 00:51:13;;;;;;;2.67;2.58;;;22.00;99.90;;;21.85;80.84;100570.13;4937701;29;20090;-66
2023/06/19 00:53:41;;;;;;;2.90;2.80;;;21.80;99.90;;;21.99;82.72;100640.22;4936575;29;20510;-66
2023/06/19 00:56:10;;;;;;;3.33;3.13;;;21.60;99.90;;;22.00;83.30;100636.59;4937941;29;20469;-67
2023/06/19 00:58:39;;;;;;;2.80;2.70;;;21.60;99.90;;;21.83;84.10;100615.13;4937989;29;20059;-66
2023/06/19 01:01:09;;;;;;;3.78;3.58;;;21.50;99.90;;;21.98;84.69;100627.75;4938250;29;20047;-66
2023/06/19 01:03:38;;;;;;;2.92;2.83;;;21.50;99.90;;;22.03;85.18;100627.47;4938054;29;20048;-66
2023/06/19 01:06:16;;;;;;;2.80;2.70;;;21.60;99.90;;;21.79;86.13;100626.97;4934338;29;20079;-66
2023/06/19 01:08:54;;;;;;;4.15;3.15;;;21.40;99.90;;;21.32;87.56;100564.91;4937939;29;20095;-67
2023/06/19 01:11:31;;;;;;;2.45;2.35;;;21.30;99.90;;;21.59;88.58;100619.09;4925163;29;20112;-68
2023/06/19 01:14:04;;;;;;;2.70;2.60;;;21.30;99.90;;;21.58;89.58;100619.19;4937336;29;20047;-67
2023/06/19 01:16:35;;;;;;;2.78;2.67;;;21.20;99.90;;;21.49;90.17;100599.00;4937715;29;20052;-67
2023/06/19 01:19:06;;;;;;;3.40;3.08;;;21.30;99.90;;;21.58;90.99;100635.31;4937693;29;20458;-66
2023/06/19 01:21:35;;;;;;;2.85;2.75;;;21.20;99.90;;;21.65;91.12;100618.75;4937405;29;20048;-66
2023/06/19 01:24:06;;;;;;;2.40;2.30;;;21.20;99.90;;;21.64;91.78;100635.00;4917550;29;20044;-66
2023/06/19 01:26:35;;;;;;;3.05;2.85;;;21.20;99.90;;;21.61;92.15;100611.78;4937572;29;20147;-66
2023/06/19 01:29:05;;;;;;;2.92;2.83;;;21.20;99.90;;;21.64;92.39;100618.84;4936370;29;20048;-67
2023/06/19 01:31:39;;;;;;;3.40;3.20;;;21.20;99.90;;;21.61;92.69;100609.09;4936144;29;20055;-67
2023/06/19 01:34:12;;;;;;;3.28;3.17;;;21.20;99.90;;;21.66;92.81;100628.56;4928683;29;20044;-67
2023/06/19 01:36:41;;;;;;;2.97;2.85;;;21.20;99.90;;;21.50;92.79;100589.97;4933586;29;20056;-67
2023/06/19 01:39:12;;;;;;;2.55;2.45;;;21.30;99.90;;;21.76;92.79;100612.78;4936301;29;20051;-66
2023/06/19 01:41:42;;;;;;;4.25;4.00;;;21.30;99.90;;;21.74;92.64;100620.94;4928231;29;20142;-67
2023/06/19 01:44:11;;;;;;;;;;;21.40;99.90;;;21.62;92.89;100601.91;4936180;29;20059;-66
2023/06/19 01:46:40;;;;;;;2.60;2.50;;;21.30;99.90;;;21.80;92.76;100612.56;4936955;29;19923;-67
2023/06/19 01:49:09;;;;;;;6.28;4.15;;;21.30;99.90;;;21.81;92.67;100614.31;4936940;29;20054;-66
2023/06/19 01:51:38;;;;;;;4.32;4.03;;;21.40;99.90;;;21.88;92.22;100615.72;4937107;29;20051;-66
2023/06/19 01:54:08;;;;;;;3.55;3.25;;;21.40;99.90;;;21.81;92.55;100603.56;4937188;29;20047;-66
2023/06/19 01:56:39;;;;;;;4.53;4.22;;;21.40;99.90;;;21.64;92.66;100571.22;4933514;29;20075;-67
2023/06/19 01:59:07;;;;;;;;;;;21.40;99.90;;;21.84;93.04;100600.69;4936116;29;20043;-66
2023/06/19 02:01:35;;;;;;;4.90;4.13;;;21.40;99.90;;;21.90;92.94;100613.81;4927920;29;19930;-67
2023/06/19 02:04:04;;;;;;;2.83;2.72;;;21.40;99.90;;;21.87;93.11;100614.00;4935379;29;20055;-67
2023/06/19 02:06:32;;;;;;;3.83;3.53;;;21.40;99.90;;;21.86;93.49;100608.66;4936655;29;20056;-66
2023/06/19 02:09:01;;;;;;;3.33;3.13;;;21.40;99.90;;;21.88;93.97;100607.63;4936507;29;20048;-67
2023/06/19 02:11:29;;;;;;;7.72;6.15;;;21.40;99.90;;;21.72;94.78;100606.69;4936197;29;20048;-66
2023/06/19 02:13:59;;;;;;;7.80;4.32;;;21.30;99.90;;;21.71;95.74;100634.59;4936433;29;20410;-67
2023/06/19 02:16:27;;;;;;;5.07;4.67;;;21.30;99.90;;;21.74;96.60;100631.72;4923977;29;20103;-67
2023/06/19 02:18:56;;;;;;;4.47;4.03;;;21.30;99.90;;;21.76;96.99;100615.47;4932813;29;20307;-68
2023/06/19 02:21:25;;;;;;;6.05;4.75;;;21.30;99.90;;;21.63;98.14;100633.25;4936071;29;20043;-67
2023/06/19 02:23:53;;;;;;;6.38;5.88;;;21.20;99.90;;;21.64;98.77;100629.63;4934902;29;20051;-67
2023/06/19 02:26:22;;;;;;;7.40;6.82;;;21.20;99.90;;;21.55;99.49;100630.97;4926972;29;20103;-68
2023/06/19 02:28:50;;;;;;;6.45;5.30;;;21.10;99.90;;;21.58;99.78;100638.91;4936503;29;20161;-67
2023/06/19 02:31:20;;;;;;;4.65;3.78;;;21.10;99.90;;;21.17;99.93;100570.25;4934783;29;20056;-67
2023/06/19 02:33:48;;;;;;;4.00;3.78;;;21.10;99.90;;;21.40;100.00;100639.84;4934797;29;20052;-67
2023/06/19 02:36:20;;;;;;;10.38;7.10;;;21.00;99.90;;;21.49;100.00;100644.75;4923887;29;20052;-67
2023/06/19 02:38:48;;;;;;;4.28;3.97;;;21.00;99.90;;;21.45;100.00;100665.56;4936074;29;20197;-67
2023/06/19 02:41:18;;;;;;;4.70;3.95;;;21.00;99.90;;;21.55;100.00;100668.66;4931235;29;20489;-67
2023/06/19 02:43:48;;;;;;;3.88;3.58;;;21.10;99.90;;;21.48;100.00;100667.25;4934739;29;20051;-67
2023/06/19 02:46:17;;;;;;;5.47;4.22;;;21.00;99.90;;;21.50;100.00;100671.56;4936075;29;20047;-67
2023/06/19 02:48:47;;;;;;;13.38;4.00;;;21.00;99.90;;;21.49;100.00;100679.75;4935634;29;20047;-67
2023/06/19 02:51:16;;;;;;;3.90;3.70;;;21.00;99.90;;;21.44;100.00;100688.06;4935887;29;20405;-67
2023/06/19 02:53:44;;;;;;;3.90;3.60;;;21.00;99.90;;;21.39;100.00;100686.53;4934886;29;20401;-67
2023/06/19 02:56:13;;;;;;;2.95;2.85;;;20.90;99.90;;;21.44;100.00;100693.47;4942214;29;20048;-66
2023/06/19 02:58:41;;;;;;;3.28;3.10;;;20.90;99.90;;;21.46;100.00;100699.63;4931370;29;20063;-67
2023/06/19 03:01:10;;;;;;;4.55;4.25;;;20.90;99.90;;;21.33;100.00;100694.97;4943697;29;20064;-67
2023/06/19 03:03:39;;;;;;;17.08;4.50;;;20.90;99.90;;;21.20;100.00;100681.25;4934151;29;20143;-66
2023/06/19 03:06:09;;;;;;;7.87;6.27;;;20.80;99.90;;;21.07;100.00;100700.78;4935819;29;20056;-67
2023/06/19 03:08:38;;;;;;;5.30;4.82;;;20.70;99.90;;;20.97;100.00;100719.16;4934483;29;20048;-67
2023/06/19 03:11:07;;;;;;;5.68;5.18;;;20.50;99.90;;;21.01;100.00;100718.09;4942415;29;20076;-67
2023/06/19 03:13:47;;;;;;;6.55;5.90;;;20.50;99.90;;;21.02;100.00;100727.03;4934354;29;20047;-68
2023/06/19 03:16:16;;;;;;;7.90;7.03;;;20.50;99.90;;;20.97;100.00;100723.66;4931051;29;20494;-67
2023/06/19 03:18:45;;;;;;;11.93;6.22;;;20.50;99.90;;;20.98;100.00;100730.81;4934255;29;20110;-67
2023/06/19 03:21:19;;;;;;;7.80;7.03;;;20.50;99.90;;;20.96;100.00;100736.25;4926577;29;20052;-66
2023/06/19 03:23:49;;;;;;;7.15;6.00;;;20.50;99.90;;;20.87;100.00;100735.81;4934050;29;20051;-67
2023/06/19 03:26:19;;;;;;;5.28;4.85;;;20.40;99.90;;;20.75;100.00;100701.47;4941870;29;20070;-67
2023/06/19 03:28:48;;;;;;;5.88;5.38;;;20.50;99.90;;;20.81;100.00;100747.75;4930457;29;20438;-67
2023/06/19 03:31:17;;;;;;;6.07;5.53;;;20.30;99.90;;;20.78;100.00;100758.66;4931215;29;20051;-66
2023/06/19 03:33:45;;;;;;;6.97;4.38;;;20.30;99.90;;;20.74;100.00;100753.47;4935211;29;20491;-67
2023/06/19 03:36:14;;;;;;;4.60;4.25;;;20.30;99.90;;;20.84;100.00;100762.88;4933774;29;20086;-67
2023/06/19 03:38:50;;;;;;;2.88;2.78;;;20.30;99.90;;;20.81;100.00;100757.66;4934054;29;20106;-67
2023/06/19 03:41:25;;;;;;;4.03;3.38;;;20.30;99.90;;;20.82;100.00;100762.06;4941789;28;20052;-66
2023/06/19 03:43:55;;;;;;;2.95;2.85;;;20.30;99.90;;;20.77;100.00;100764.13;4938773;29;20391;-67
2023/06/19 03:46:25;;;;;;;2.90;2.70;;;20.30;99.90;;;20.60;100.00;100771.16;4935032;29;20052;-66
2023/06/19 03:48:53;;;;;;;3.95;3.70;;;20.20;99.90;;;20.76;100.00;100783.88;4933551;29;20044;-67
2023/06/19 03:51:22;;;;;;;2.83;2.72;;;20.30;99.90;;;20.79;100.00;100791.81;4933326;29;20048;-67
2023/06/19 03:53:52;;;;;;;2.55;2.45;;;20.30;99.90;;;20.80;100.00;100791.72;4933622;29;20051;-66
2023/06/19 03:56:20;;;;;;;3.75;3.45;;;20.30;99.90;;;20.80;100.00;100790.84;4933678;29;20059;-67
2023/06/19 03:58:49;;;;;;;4.55;4.22;;;20.30;99.90;;;20.79;100.00;100791.81;4933630;29;20063;-67
2023/06/19 04:01:17;;;;;;;4.03;3.80;;;20.40;99.90;;;20.73;99.98;100787.56;4926031;29;20054;-67
2023/06/19 04:03:46;;;;;;;4.07;3.70;;;20.30;99.90;;;20.69;99.48;100786.00;4935099;29;20059;-66
2023/06/19 04:06:14;;;;;;;2.70;2.60;;;20.30;99.90;;;20.66;99.86;100799.56;4915262;29;20063;-67
2023/06/19 04:08:43;;;;;;;3.90;3.67;;;20.20;99.90;;;20.64;99.75;100798.75;4937460;29;20063;-66
2023/06/19 04:11:14;;;;;;;3.42;3.22;;;20.20;99.90;;;20.53;99.97;100814.50;4929696;29;20056;-66
2023/06/19 04:13:43;;;;;;;3.37;3.00;;;20.10;99.90;;;20.55;100.00;100809.94;4937376;29;20048;-67
2023/06/19 04:16:13;;;;;;;3.33;3.13;;;20.10;99.90;;;20.57;100.00;100817.00;4939123;29;20042;-67
2023/06/19 04:18:43;;;;;;;7.50;5.77;;;20.10;99.90;;;20.50;100.00;100814.63;4938805;29;20060;-67
2023/06/19 04:21:12;;;;;;;9.82;6.95;;;20.10;99.90;;;20.46;100.00;100823.81;4929927;29;20186;-66
2023/06/19 04:23:41;;;;;;;4.05;3.83;;;20.00;99.90;;;20.46;100.00;100835.41;4937545;29;20052;-66
2023/06/19 04:26:09;;;;;;;3.90;3.70;;;20.00;99.90;;;20.49;100.00;100837.97;4934700;29;20063;-68
2023/06/19 04:28:39;;;;;;;4.03;3.72;;;20.00;99.90;;;20.58;99.99;100832.19;4937440;29;20071;-67
2023/06/19 04:31:07;;;;;;;5.00;4.72;;;20.10;99.90;;;20.56;100.00;100849.31;4938999;29;20043;-67
2023/06/19 04:33:36;;;;;;;3.50;3.30;;;20.10;99.90;;;20.53;99.84;100850.34;4938422;29;20107;-69
2023/06/19 04:36:05;;;;;;;11.43;3.13;;;20.00;99.90;;;20.60;99.92;100869.72;4938341;29;20139;-66
2023/06/19 04:38:33;;;;;;;4.45;4.15;;;20.10;99.90;;;20.60;99.42;100854.47;4938306;29;20071;-67
2023/06/19 04:41:02;;;;;;;3.78;3.58;;;20.20;99.90;;;20.57;99.29;100856.44;4938501;29;20052;-67
2023/06/19 04:43:30;;;;;;;4.53;4.13;;;20.10;99.90;;;20.58;98.60;100864.44;4938206;29;20052;-66
2023/06/19 04:46:00;;;;;;;4.05;3.75;;;20.10;99.90;;;20.51;98.41;100859.41;4938104;29;20069;-66
2023/06/19 04:48:29;;;;;;;2.83;2.72;;;20.10;99.90;;;20.47;98.06;100858.69;4934283;29;20048;-66
2023/06/19 04:51:00;;;;;;;2.90;2.80;;;20.10;99.90;;;20.54;97.92;100864.63;4933497;29;20052;-66
2023/06/19 04:53:29;;;;;;;3.63;3.33;;;20.10;99.90;;;20.56;97.83;100874.38;4937932;29;20044;-67
2023/06/19 04:55:57;;;;;;;3.72;3.53;;;20.10;99.90;;;20.45;97.29;100876.69;4937982;29;20091;-67
2023/06/19 04:58:28;;;;;;;3.20;3.03;;;20.00;99.90;;;20.37;97.77;100883.31;4937757;29;20059;-66
2023/06/19 05:00:57;;;;;;;4.28;3.88;;;20.00;99.90;;;20.36;97.70;100892.34;4937521;29;20071;-66
2023/06/19 05:03:27;;;;;;;3.05;2.95;;;19.90;99.90;;;20.35;97.71;100896.84;4937748;29;20039;-66
2023/06/19 05:05:55;;;;;;;4.53;4.05;;;19.90;99.90;;;20.45;97.17;100900.00;4936460;29;20501;-66
2023/06/19 05:08:24;;;;;;;3.95;3.75;;;20.00;99.90;;;20.37;96.78;100900.34;4934008;29;20414;-68
2023/06/19 05:10:53;;;;;;;5.35;4.85;;;19.90;99.90;;;20.34;96.64;100896.91;4937668;29;20047;-66
2023/06/19 05:13:21;;;;;;;5.15;4.75;;;19.90;99.90;;;20.30;96.62;100903.34;4937636;29;20067;-66
2023/06/19 05:15:50;;;;;;;6.13;5.55;;;19.90;99.90;;;20.35;96.71;100904.91;4936260;29;20052;-67
2023/06/19 05:18:20;;;;;;;5.28;4.88;;;19.90;99.90;;;20.25;96.66;100916.09;4936719;29;20053;-67
2023/06/19 05:20:50;;;;;;;3.63;3.45;;;19.80;99.90;;;20.24;96.65;100909.00;4937844;29;20058;-66
2023/06/19 05:23:18;;;;;;;3.13;2.92;;;19.80;99.90;;;20.19;96.71;100916.38;4937547;29;20085;-66
2023/06/19 05:25:47;;;;;;;3.03;2.92;;;19.70;99.90;;;20.20;96.29;100926.19;4937374;29;20051;-66
2023/06/19 05:28:15;;;;;;;3.33;3.13;;;19.70;99.90;;;20.15;96.07;100929.03;4944210;29;20508;-66
2023/06/19 05:30:44;;;;;;;7.20;5.40;;;19.70;99.90;;;19.97;95.95;100928.94;4933613;29;20055;-66
2023/06/19 05:33:15;;;;;;;4.80;4.50;;;19.50;99.90;;;20.00;96.24;100935.03;4933834;29;20044;-66
2023/06/19 05:35:51;;;;;;;4.85;4.50;;;19.50;99.90;;;19.58;95.87;100857.19;4937307;29;20051;-65
2023/06/19 05:38:21;;;;;;;3.63;3.42;;;19.50;99.90;;;20.11;95.56;100940.81;4937207;29;20080;-66
2023/06/19 05:40:49;;;;;;;5.10;3.83;;;19.60;99.90;;;20.08;95.20;100946.34;4937138;29;20135;-66
2023/06/19 05:43:18;;;;;;;3.85;3.65;;;19.60;99.90;;;20.13;95.31;100936.28;4936635;29;20046;-66
2023/06/19 05:45:47;;;;;;;5.25;4.63;;;19.70;99.90;;;20.14;94.99;100947.91;4933268;29;20051;-66
2023/06/19 05:48:15;;;;;;;5.55;5.05;;;19.70;99.90;;;20.13;94.68;100951.53;4932205;29;20144;-66
2023/06/19 05:50:44;;;;;;;4.65;4.28;;;19.70;99.90;;;20.01;94.58;100926.06;4936700;29;20048;-66
2023/06/19 05:53:12;;;;;;;4.22;4.03;;;19.70;99.90;;;20.06;93.97;100940.16;4936969;29;20102;-66
2023/06/19 05:55:44;;;;;;;4.10;3.80;;;19.60;99.90;;;20.05;94.00;100948.28;4936683;29;20126;-66
2023/06/19 05:58:12;;;;;;;4.47;4.18;;;19.60;99.90;;;20.05;93.96;100951.88;4936656;29;20051;-66
2023/06/19 06:00:41;;;;;;;5.30;4.80;;;19.60;99.90;;;19.94;94.02;100948.72;4936789;29;20123;-66
2023/06/19 06:03:09;;;;;;;9.95;8.10;;;19.50;99.90;;;20.05;94.03;100961.72;4936331;29;20502;-66
2023/06/19 06:05:38;;;;;;;4.38;4.03;;;19.50;99.90;;;19.99;93.68;100964.66;4936254;29;20056;-67
2023/06/19 06:08:06;;;;;;;2.70;2.60;;;19.50;99.90;;;20.00;93.83;100978.00;4942556;29;20135;-66
2023/06/19 06:10:35;;;;;;;6.10;5.32;;;19.50;99.90;;;19.98;93.66;100971.84;4932711;29;20051;-66
2023/06/19 06:13:04;;;;;;;2.97;2.88;;;19.50;99.90;;;20.08;93.28;100983.06;4936071;29;20111;-67
2023/06/19 06:15:33;;;;;;;5.30;4.88;;;19.60;99.90;;;20.10;92.89;100990.13;4934878;29;20182;-66
2023/06/19 06:18:03;;;;;;;5.50;4.47;;;19.60;99.90;;;19.60;92.67;100911.69;4936459;29;20405;-66
2023/06/19 06:20:32;;;;;;;3.28;3.08;;;19.60;99.90;;;20.08;92.70;100991.13;4936246;29;20453;-65
2023/06/19 06:23:00;;;;;;;4.75;4.38;;;19.60;99.90;;;20.11;92.46;100993.69;4935990;29;20054;-66
2023/06/19 06:25:29;;;;;;;3.30;3.15;;;19.70;99.90;;;20.00;92.77;100980.69;4935931;29;20064;-67
2023/06/19 06:27:57;;;;;;;3.50;3.30;;;19.70;99.90;;;20.16;92.58;101005.13;4936222;29;20122;-66
2023/06/19 06:30:28;;;;;;;5.03;4.68;;;19.70;99.90;;;20.02;92.36;100997.63;4934958;29;20044;-65
2023/06/19 06:32:58;;;;;;;3.92;3.72;;;19.60;99.90;;;20.13;92.42;101014.16;4932449;29;20044;-66
2023/06/19 06:35:26;;;;;;;3.75;3.55;;;19.70;99.90;;;20.27;92.01;101005.56;4934655;29;20135;-67
2023/06/19 06:37:55;;;;;;;3.20;3.00;;;19.80;99.90;;;20.34;91.69;101015.13;4934688;29;20106;-67
2023/06/19 06:40:23;;;;;;;3.72;3.38;;;19.90;99.90;;;20.22;91.42;101023.69;4935739;29;20059;-66
2023/06/19 06:42:53;;;;;;;3.55;3.35;;;19.80;99.90;;;20.28;91.47;101018.06;4935908;29;20048;-65
2023/06/19 06:45:21;;;;;;;3.88;3.67;;;19.80;99.90;;;20.30;90.99;101027.84;4935586;29;20110;-66
2023/06/19 06:47:54;;;;;;;3.70;3.45;;;19.90;99.90;;;19.94;90.77;100950.56;4935860;29;20054;-66
2023/06/19 06:50:22;;;;;;;5.82;5.35;;;19.90;99.90;;;20.46;90.78;101031.59;4931782;29;20051;-67
2023/06/19 06:53:01;;;;;;;3.10;3.00;;;20.00;99.90;;;20.41;90.35;101035.44;5081275;27;20091;-65
2023/06/19 06:55:29;;;;;;;5.40;5.00;;;19.90;99.90;;;20.42;90.12;101038.03;5069286;28;20049;-66
2023/06/19 06:57:58;;;;;;;2.60;2.50;;;20.00;99.90;;;20.41;90.07;101032.75;5069054;28;20497;-67
2023/06/19 07:00:26;;;;;;;4.93;3.85;;;19.90;99.90;;;20.36;89.95;101045.50;5069077;28;20364;-67
2023/06/19 07:02:55;;;;;;;2.60;2.50;;;19.90;99.90;;;20.36;90.04;101037.44;5069015;28;20051;-66
2023/06/19 07:05:24;;;;;;;4.07;3.88;;;19.90;99.90;;;20.50;90.05;101048.47;5068896;28;20049;-66
2023/06/19 07:07:52;;;;;;;4.55;4.15;;;20.00;99.90;;;20.52;89.86;101054.66;5064984;28;20120;-67
2023/06/19 07:10:22;;;;;;;3.45;3.25;;;20.00;99.90;;;20.50;90.11;101053.84;5068673;28;20103;-67
2023/06/19 07:12:52;;;;;;;2.50;2.40;;;20.00;99.90;;;20.51;89.81;101053.81;5068890;28;20064;-66
2023/06/19 07:15:20;;;;;;;5.22;4.80;;;20.00;99.90;;;20.42;89.94;101059.53;5067719;28;20513;-66
2023/06/19 07:17:49;;;;;;;3.05;2.95;;;19.90;99.90;;;20.51;89.63;101061.88;5067615;28;20512;-66
2023/06/19 07:20:17;;;;;;;3.60;3.33;;;20.00;99.90;;;20.13;89.51;100990.00;5068979;28;20054;-66
2023/06/19 07:22:46;;;;;;;13.23;4.95;;;20.10;99.90;;;20.55;89.67;101073.34;5068665;28;20567;-67
2023/06/19 07:25:15;;;;;;;3.00;2.90;;;20.10;99.90;;;20.55;89.57;101071.56;5068832;28;20119;-66
2023/06/19 07:27:45;;;;;;;2.40;2.30;;;20.10;99.90;;;20.65;89.67;101078.25;5068798;28;20087;-67
2023/06/19 07:30:14;;;;;;;3.15;3.05;;;20.20;99.90;;;20.81;89.83;101080.31;5063729;28;20081;-67
2023/06/19 07:32:44;;;;;;;3.40;3.10;;;20.30;99.90;;;20.48;89.85;101010.91;5068584;28;20346;-66
2023/06/19 07:35:13;;;;;;;3.83;3.50;;;20.40;99.90;;;20.98;89.38;101080.47;5068390;28;20068;-67
2023/06/19 07:37:42;;;;;;;2.72;2.63;;;20.50;99.90;;;21.06;88.73;101076.50;5068263;28;20075;-66
2023/06/19 07:40:12;;;;;;;3.33;3.15;;;20.60;99.90;;;21.12;88.38;101078.03;5068342;28;20055;-66
2023/06/19 07:42:41;;;;;;;;;;;20.70;99.90;;;21.13;87.82;101087.88;5068919;28;20057;-66
2023/06/19 07:45:14;;;;;;;;;;;20.70;99.90;;;21.28;87.52;101085.38;5068655;28;20349;-66
2023/06/19 07:47:42;;;;;;;3.10;2.95;;;20.80;99.90;;;21.23;86.93;101086.53;5064336;28;19920;-66
2023/06/19 07:50:11;;;;;;;3.70;3.50;;;20.80;99.90;;;21.35;86.72;101088.69;5068004;28;20041;-66
2023/06/19 07:52:39;;;;;;;3.15;3.05;;;20.90;99.90;;;21.33;86.44;101094.13;5067840;28;20052;-66
2023/06/19 07:55:09;;;;;;;2.85;2.75;;;20.90;99.90;;;21.36;86.57;101088.63;5068336;28;20048;-66
2023/06/19 07:57:37;;;;;;;3.58;3.38;;;20.90;99.90;;;21.42;86.45;101093.72;5067840;28;20060;-66
2023/06/19 08:00:10;;;;;;;3.35;3.15;;;21.00;99.90;;;21.38;86.31;101096.63;5068120;28;20433;-67
2023/06/19 08:02:41;;;;;;;3.28;3.08;;;21.00;99.90;;;21.21;85.81;101088.44;5063915;28;20099;-66
2023/06/19 08:05:10;;;;;;;;;;;20.80;99.90;;;21.27;86.08;101107.84;5055210;28;20044;-67
2023/06/19 08:07:39;;;;;;;3.50;3.33;;;20.80;99.90;;;21.25;85.76;101100.81;5054904;28;19942;-66
2023/06/19 08:10:09;;;;;;;3.58;3.38;;;20.80;99.90;;;20.94;85.10;101033.13;5055257;28;20049;-66
2023/06/19 08:12:54;;;;;;;3.75;3.55;;;20.80;99.90;;;21.36;84.27;101101.19;5054835;28;20041;-66
2023/06/19 08:15:23;;;;;;;3.20;3.10;;;20.90;99.90;;;21.40;84.53;101106.38;5050790;28;20396;-66
2023/06/19 08:17:53;;;;;;;4.10;3.80;;;21.00;99.90;;;21.34;83.89;101105.75;5055120;28;20411;-66
2023/06/19 08:20:22;;;;;;;2.67;2.58;;;20.90;99.90;;;20.81;84.62;101013.94;5054778;28;20049;-66
2023/06/19 08:22:51;;;;;;;3.20;3.10;;;20.90;99.90;;;20.90;84.35;101053.03;5054564;28;20491;-66
2023/06/19 08:25:19;;;;;;;2.40;2.30;;;20.80;99.90;;;21.39;84.76;101118.06;5054538;28;20071;-66
2023/06/19 08:27:48;;;;;;;2.97;2.78;;;20.90;99.90;;;21.40;84.73;101136.00;5053441;28;20067;-67
2023/06/19 08:30:16;;;;;;;3.78;3.58;;;21.00;99.90;;;21.41;84.62;101124.25;5054475;28;20040;-66
2023/06/19 08:32:45;;;;;;;3.05;2.90;;;21.00;99.90;;;21.49;84.62;101140.94;5054401;28;20457;-66
2023/06/19 08:35:16;;;;;;;3.20;3.10;;;21.00;99.90;;;21.53;84.48;101144.38;5054548;28;20463;-65
2023/06/19 08:37:45;;;;;;;2.53;2.42;;;21.10;99.90;;;21.47;84.54;101140.13;5050519;28;20048;-66
2023/06/19 08:40:13;;;;;;;2.75;2.65;;;21.00;99.90;;;21.52;84.36;101150.72;5054290;28;20052;-67
2023/06/19 08:42:43;;;;;;;3.38;3.25;;;21.10;99.90;;;21.55;83.38;101147.88;5052890;28;20110;-66
2023/06/19 08:45:13;;;;;;;4.63;3.58;;;21.10;99.90;;;21.46;82.80;101133.03;5054182;28;20071;-66
2023/06/19 08:47:42;;;;;;;4.93;4.53;;;21.10;99.90;;;21.39;82.67;101139.59;5052810;28;20041;-66
2023/06/19 08:50:11;;;;;;;7.15;3.47;;;21.00;99.90;;;21.43;82.96;101148.41;5054358;28;20135;-66
2023/06/19 08:52:41;;;;;;;3.25;3.10;;;21.00;99.90;;;21.61;82.79;101141.31;5054092;28;20088;-67
2023/06/19 08:55:10;;;;;;;4.93;3.05;;;21.10;99.90;;;21.70;82.14;101136.41;5052754;28;20106;-67
2023/06/19 08:57:40;;;;;;;2.65;2.55;;;21.20;99.90;;;21.89;82.79;101136.47;5050539;28;20053;-67
2023/06/19 09:00:10;;;;;;;8.68;6.82;;;21.40;99.90;;;22.09;83.07;101149.88;5052573;28;20135;-66
2023/06/19 09:02:45;;;;;;;3.83;3.63;;;21.60;99.90;;;22.20;82.61;101148.41;5053643;28;20058;-67
2023/06/19 09:05:25;;;;;;;2.45;2.35;;;21.80;99.90;;;22.29;81.48;101150.69;5050230;28;20128;-66
2023/06/19 09:08:01;;;;;;;2.47;2.38;;;21.90;99.90;;;22.36;80.33;101165.59;5053461;28;20048;-66
2023/06/19 09:10:33;;;;;;;2.13;2.03;;;22.00;99.90;;;22.32;79.15;101166.69;5052002;28;20079;-66
2023/06/19 09:13:04;;;;;;;2.50;2.40;;;22.00;99.90;;;22.37;79.63;101177.28;5053184;28;20474;-67
2023/06/19 09:15:34;;;;;;;2.28;2.17;;;22.00;99.90;;;22.39;79.32;101178.94;5052343;28;20040;-67
2023/06/19 09:18:05;;;;;;;5.47;4.18;;;22.00;99.90;;;22.33;79.77;101175.66;5040510;28;20053;-67
2023/06/19 09:20:41;;;;;;;5.07;3.55;;;21.90;99.90;;;22.40;79.65;101188.78;5053278;28;20045;-67
2023/06/19 09:23:12;;;;;;;2.97;2.80;;;22.00;99.90;;;22.35;78.69;101179.16;5053220;28;20049;-66
2023/06/19 09:25:47;;;;;;;3.00;2.90;;;22.00;99.90;;;22.47;79.08;101181.28;5051952;28;20053;-67
2023/06/19 09:28:21;;;;;;;5.18;3.97;;;22.00;99.90;;;22.52;78.61;101194.50;5053020;28;20041;-67
2023/06/19 09:30:57;;;;;;;4.00;2.70;;;22.10;99.90;;;22.15;78.44;101134.28;5053017;28;20102;-66
2023/06/19 09:33:28;;;;;;;2.65;2.55;;;22.10;99.90;;;22.65;78.02;101193.88;5052900;28;20068;-67
2023/06/19 09:35:58;;;;;;;4.13;2.72;;;22.20;99.90;;;22.68;78.46;101192.88;5052921;28;20052;-67
2023/06/19 09:38:30;;;;;;;3.25;3.05;;;22.20;99.90;;;22.70;77.99;101199.06;5049266;28;20110;-66
2023/06/19 09:41:02;;;;;;;3.08;2.97;;;22.30;99.90;;;22.69;77.68;101202.69;5052820;28;20057;-67
2023/06/19 09:43:37;;;;;;;4.15;3.85;;;22.30;99.90;;;22.85;77.69;101203.69;5052745;28;20044;-66
2023/06/19 09:46:07;;;;;;;4.30;3.88;;;22.40;99.90;;;22.90;77.48;101194.41;5052730;28;20045;-66
2023/06/19 09:48:42;;;;;;;3.42;3.22;;;22.50;99.90;;;23.00;76.85;101203.81;5052960;28;20101;-66
2023/06/19 09:51:18;;;;;;;4.68;3.22;;;22.60;99.90;;;23.05;75.37;101207.13;5049885;28;20064;-66
2023/06/19 09:53:51;;;;;;;3.38;3.22;;;22.70;99.90;;;23.20;76.65;101210.91;5052710;28;20049;-67
2023/06/19 09:56:21;;;;;;;3.63;3.40;;;22.70;99.90;;;23.33;76.04;101211.16;5064787;28;20140;-67
2023/06/19 09:58:53;;;;;;;3.95;3.75;;;22.90;99.90;;;23.36;75.92;101194.81;5048941;28;20036;-67
2023/06/19 10:01:22;;;;;;;3.15;2.97;;;23.10;99.90;;;23.47;73.37;101214.91;5052413;28;20055;-66
2023/06/19 10:03:51;;;;;;;3.63;3.33;;;23.10;99.90;;;23.43;72.29;101217.84;5052277;28;20559;-67
2023/06/19 10:06:20;;;;;;;3.05;2.72;;;23.10;99.90;;;23.66;73.03;101229.19;5052677;28;20045;-66
2023/06/19 10:08:52;;;;;;;2.30;2.20;;;23.20;99.90;;;23.78;72.77;101220.44;5052299;28;20051;-66
2023/06/19 10:11:21;;;;;;;2.42;2.33;;;23.30;99.90;;;23.87;71.98;101214.53;5052369;28;20478;-66
2023/06/19 10:13:50;;;;;;;2.72;2.63;;;23.50;99.90;;;23.88;71.19;101213.59;5052127;28;20052;-67
2023/06/19 10:16:23;;;;;;;2.40;2.30;;;23.50;99.90;;;24.10;72.39;101216.03;5047444;28;20052;-66
2023/06/19 10:18:52;;;;;;;2.28;2.17;;;23.70;99.90;;;24.13;70.24;101214.06;5052324;28;20045;-67
2023/06/19 10:21:23;;;;;;;3.45;3.20;;;23.80;99.90;;;24.17;69.46;101209.34;5050965;28;20045;-67
2023/06/19 10:23:56;;;;;;;;;;;23.80;99.90;;;24.27;69.77;101226.81;5051501;28;20164;-67